createdAt,value
2023-08-14T00:01:08.333Z,4.03
2023-08-14T00:03:39.472Z,3.70
2023-08-14T00:06:08.636Z,3.70
2023-08-14T00:08:37.486Z,3.58
2023-08-14T00:11:06.684Z,4.10
2023-08-14T00:13:50.866Z,4.05
2023-08-14T00:16:20.391Z,3.45
2023-08-14T00:18:49.287Z,4.35
2023-08-14T00:21:18.526Z,4.20
2023-08-14T00:23:47.410Z,3.88
2023-08-14T00:26:16.736Z,4.22
2023-08-14T00:28:45.581Z,4.18
2023-08-14T00:31:15.049Z,3.60
2023-08-14T00:33:43.854Z,4.55
2023-08-14T00:36:13.398Z,3.88
2023-08-14T00:38:42.255Z,3.42
2023-08-14T00:41:11.477Z,4.00
2023-08-14T00:43:40.254Z,4.40
2023-08-14T00:46:09.792Z,4.28
2023-08-14T00:48:39.410Z,4.93
2023-08-14T00:51:08.638Z,3.67
2023-08-14T00:53:37.541Z,3.78
2023-08-14T00:56:06.793Z,3.95
2023-08-14T00:58:35.660Z,3.97
2023-08-14T01:01:05.181Z,4.30
2023-08-14T01:03:34.128Z,4.00
2023-08-14T01:06:03.574Z,3.70
2023-08-14T01:08:32.436Z,3.90
2023-08-14T01:11:07.445Z,4.03
2023-08-14T01:13:49.829Z,4.38
2023-08-14T01:16:25.126Z,3.88
2023-08-14T01:18:54.552Z,4.45
2023-08-14T01:21:53.497Z,3.60
2023-08-14T01:24:28.024Z,3.70
2023-08-14T01:26:57.175Z,3.58
2023-08-14T01:29:25.923Z,3.30
2023-08-14T01:31:55.110Z,3.97
2023-08-14T01:34:24.746Z,3.70
2023-08-14T01:37:34.447Z,3.28
2023-08-14T01:40:25.398Z,3.30
2023-08-14T01:43:15.443Z,3.65
2023-08-14T01:45:44.274Z,2.97
2023-08-14T01:48:13.481Z,3.42
2023-08-14T01:50:42.264Z,3.28
2023-08-14T01:53:11.483Z,4.15
2023-08-14T01:55:40.367Z,3.80
2023-08-14T01:58:09.558Z,3.28
2023-08-14T02:00:38.956Z,3.58
2023-08-14T02:03:08.406Z,4.03
2023-08-14T02:05:37.352Z,3.58
2023-08-14T02:08:06.732Z,3.80
2023-08-14T02:10:35.663Z,3.20
2023-08-14T02:13:04.974Z,3.83
2023-08-14T02:15:33.753Z,4.05
2023-08-14T02:18:03.106Z,3.17
2023-08-14T02:20:32.064Z,3.20
2023-08-14T02:23:01.574Z,3.28
2023-08-14T02:25:32.424Z,3.10
2023-08-14T02:28:01.622Z,3.67
2023-08-14T02:30:30.651Z,3.33
2023-08-14T02:32:59.998Z,2.97
2023-08-14T02:35:28.896Z,3.33
2023-08-14T02:37:58.695Z,3.45
2023-08-14T02:40:27.856Z,3.70
2023-08-14T02:43:02.705Z,3.90
2023-08-14T02:45:32.076Z,3.63
2023-08-14T02:48:01.473Z,3.63
2023-08-14T02:50:31.382Z,3.72
2023-08-14T02:53:01.018Z,3.00
2023-08-14T02:55:30.019Z,3.13
2023-08-14T02:57:59.322Z,2.97
2023-08-14T03:00:28.270Z,3.33
2023-08-14T03:02:57.513Z,2.90
2023-08-14T03:05:26.382Z,2.92
2023-08-14T03:07:55.425Z,3.17
2023-08-14T03:10:26.927Z,2.55
2023-08-14T03:12:56.600Z,2.83
2023-08-14T03:15:25.562Z,2.88
2023-08-14T03:17:54.677Z,3.15
2023-08-14T03:20:23.482Z,3.30
2023-08-14T03:22:52.651Z,3.17
2023-08-14T03:25:21.769Z,3.25
2023-08-14T03:27:50.950Z,2.60
2023-08-14T03:30:19.782Z,3.03
2023-08-14T03:32:49.086Z,3.15
2023-08-14T03:35:18.210Z,3.13
2023-08-14T03:37:47.347Z,2.40
2023-08-14T03:40:16.330Z,2.83
2023-08-14T03:42:45.531Z,2.28
2023-08-14T03:45:14.373Z,2.92
2023-08-14T03:47:43.669Z,2.97
2023-08-14T03:50:12.603Z,2.60
2023-08-14T03:52:42.161Z,2.97
2023-08-14T03:55:10.939Z,2.45
2023-08-14T03:57:39.982Z,2.75
2023-08-14T04:00:09.585Z,2.80
2023-08-14T04:02:45.323Z,2.53
2023-08-14T04:05:14.158Z,2.60
2023-08-14T04:07:43.188Z,2.38
2023-08-14T04:10:12.012Z,3.20
2023-08-14T04:12:41.042Z,3.15
2023-08-14T04:15:16.736Z,2.95
2023-08-14T04:17:46.623Z,2.60
2023-08-14T04:20:15.583Z,2.92
2023-08-14T04:22:44.586Z,2.90
2023-08-14T04:25:13.286Z,2.88
2023-08-14T04:27:42.342Z,2.60
2023-08-14T04:30:11.649Z,2.72
2023-08-14T04:32:41.394Z,2.65
2023-08-14T04:35:10.640Z,3.40
2023-08-14T04:37:40.634Z,2.78
2023-08-14T04:40:10.324Z,2.30
2023-08-14T04:42:41.286Z,2.97
2023-08-14T04:45:11.414Z,2.95
2023-08-14T04:47:40.475Z,2.63
2023-08-14T04:50:11.077Z,2.70
2023-08-14T04:52:40.103Z,3.08
2023-08-14T04:55:09.419Z,2.83
2023-08-14T04:57:40.924Z,3.03
2023-08-14T05:00:11.752Z,2.80
2023-08-14T05:02:41.527Z,2.75
2023-08-14T05:05:10.598Z,2.97
2023-08-14T05:07:39.650Z,3.20
2023-08-14T05:10:08.644Z,3.30
2023-08-14T05:12:37.723Z,2.90
2023-08-14T05:15:07.120Z,2.67
2023-08-14T05:17:36.674Z,3.03
2023-08-14T05:20:06.033Z,2.85
2023-08-14T05:22:35.071Z,3.20
2023-08-14T05:25:04.018Z,3.28
2023-08-14T05:27:40.190Z,2.88
2023-08-14T05:30:09.652Z,3.42
2023-08-14T05:32:39.274Z,2.80
2023-08-14T05:35:08.773Z,3.20
2023-08-14T05:37:37.881Z,2.90
2023-08-14T05:40:07.332Z,3.00
2023-08-14T05:42:36.364Z,2.92
2023-08-14T05:45:05.503Z,3.30
2023-08-14T05:47:34.524Z,2.75
2023-08-14T05:50:03.312Z,3.40
2023-08-14T05:52:32.359Z,3.05
2023-08-14T05:55:01.126Z,2.65
2023-08-14T05:57:30.140Z,2.97
2023-08-14T05:59:58.846Z,3.05
2023-08-14T06:02:27.954Z,2.22
2023-08-14T06:04:56.719Z,2.97
2023-08-14T06:07:25.971Z,3.83
2023-08-14T06:09:54.767Z,3.35
2023-08-14T06:12:24.036Z,3.25
2023-08-14T06:14:52.912Z,3.22
2023-08-14T06:17:22.038Z,2.90
2023-08-14T06:19:50.800Z,3.78
2023-08-14T06:22:20.586Z,4.68
2023-08-14T06:24:49.418Z,4.65
2023-08-14T06:27:18.650Z,5.05
2023-08-14T06:29:47.472Z,3.78
2023-08-14T06:32:17.141Z,4.38
2023-08-14T06:34:46.092Z,4.45
2023-08-14T06:37:15.182Z,3.42
2023-08-14T06:39:44.073Z,3.72
2023-08-14T06:42:13.141Z,3.60
2023-08-14T06:44:41.972Z,3.30
2023-08-14T06:47:11.114Z,3.05
2023-08-14T06:49:39.901Z,3.42
2023-08-14T06:52:09.036Z,3.40
2023-08-14T06:54:37.841Z,2.85
2023-08-14T06:57:07.398Z,2.95
2023-08-14T06:59:36.389Z,3.83
2023-08-14T07:02:05.531Z,3.13
2023-08-14T07:04:34.322Z,3.50
2023-08-14T07:07:03.537Z,2.85
2023-08-14T07:09:32.310Z,3.63
2023-08-14T07:12:01.375Z,3.08
2023-08-14T07:14:31.105Z,3.35
2023-08-14T07:17:00.460Z,2.97
2023-08-14T07:19:29.222Z,2.90
2023-08-14T07:21:58.372Z,3.47
2023-08-14T07:24:27.043Z,3.15
2023-08-14T07:26:56.171Z,3.50
2023-08-14T07:29:24.920Z,2.83
2023-08-14T07:31:54.007Z,3.70
2023-08-14T07:34:22.763Z,3.42
2023-08-14T07:36:51.883Z,3.67
2023-08-14T07:39:20.721Z,3.13
2023-08-14T07:41:49.784Z,3.38
2023-08-14T07:44:18.567Z,3.30
2023-08-14T07:46:47.690Z,3.00
2023-08-14T07:49:16.431Z,3.00
2023-08-14T07:51:45.506Z,3.20
2023-08-14T07:54:14.220Z,3.65
2023-08-14T07:56:46.092Z,3.75
2023-08-14T07:59:15.799Z,3.10
2023-08-14T08:01:45.011Z,3.00
2023-08-14T08:04:26.528Z,3.53
2023-08-14T08:06:56.325Z,3.45
2023-08-14T08:09:25.100Z,3.30
2023-08-14T08:11:54.211Z,3.38
2023-08-14T08:14:22.978Z,3.58
2023-08-14T08:16:52.107Z,3.28
2023-08-14T08:19:22.806Z,3.83
2023-08-14T08:21:52.078Z,3.00
2023-08-14T08:24:21.169Z,2.67
2023-08-14T08:26:50.318Z,3.90
2023-08-14T08:29:18.968Z,3.30
2023-08-14T08:31:48.414Z,3.40
2023-08-14T08:34:17.174Z,3.67
2023-08-14T08:36:46.278Z,3.60
2023-08-14T08:39:14.981Z,3.40
2023-08-14T08:41:46.340Z,3.65
2023-08-14T08:44:23.288Z,3.55
2023-08-14T08:47:01.305Z,3.55
2023-08-14T08:49:30.327Z,3.75
2023-08-14T08:51:59.405Z,3.60
2023-08-14T08:54:28.516Z,3.92
2023-08-14T08:56:58.148Z,3.55
2023-08-14T08:59:30.240Z,3.83
2023-08-14T09:01:59.414Z,3.38
2023-08-14T09:04:28.386Z,3.45
2023-08-14T09:06:57.662Z,3.70
2023-08-14T09:09:26.986Z,3.55
2023-08-14T09:11:56.119Z,3.45
2023-08-14T09:14:25.341Z,4.22
2023-08-14T09:16:59.825Z,4.50
2023-08-14T09:19:29.427Z,4.25
2023-08-14T09:21:58.593Z,4.20
2023-08-14T09:24:27.329Z,4.65
2023-08-14T09:26:56.354Z,4.13
2023-08-14T09:29:25.053Z,4.35
2023-08-14T09:31:54.808Z,4.53
2023-08-14T09:34:23.754Z,4.75
2023-08-14T09:36:52.903Z,4.25
2023-08-14T09:39:21.648Z,4.75
2023-08-14T09:41:50.770Z,4.03
2023-08-14T09:44:25.609Z,4.57
2023-08-14T09:46:56.354Z,3.92
2023-08-14T09:49:27.209Z,4.35
2023-08-14T09:51:57.173Z,4.03
2023-08-14T09:54:35.612Z,4.43
2023-08-14T09:57:09.660Z,4.43
2023-08-14T09:59:38.860Z,4.05
2023-08-14T10:02:14.469Z,4.00
2023-08-14T10:04:46.650Z,4.07
2023-08-14T10:07:15.981Z,4.20
2023-08-14T10:10:06.420Z,3.97
2023-08-14T10:12:39.610Z,3.85
2023-08-14T10:18:00.433Z,4.20
2023-08-14T10:20:31.623Z,4.40
2023-08-14T10:23:00.870Z,3.95
2023-08-14T10:25:29.663Z,4.20
2023-08-14T10:27:58.946Z,3.92
2023-08-14T10:30:27.835Z,4.13
2023-08-14T10:32:57.331Z,3.88
2023-08-14T10:35:27.049Z,4.13
2023-08-14T10:38:09.621Z,4.70
2023-08-14T10:40:40.111Z,3.78
2023-08-14T10:43:09.271Z,3.63
2023-08-14T10:45:38.084Z,4.30
2023-08-14T10:48:10.903Z,3.67
2023-08-14T10:50:39.839Z,4.50
2023-08-14T10:53:11.689Z,4.13
2023-08-14T10:55:48.208Z,3.75
2023-08-14T10:58:38.321Z,4.50
2023-08-14T11:01:11.197Z,4.32
2023-08-14T11:04:09.781Z,3.78
2023-08-14T11:07:03.902Z,3.90
2023-08-14T11:09:37.024Z,3.50
2023-08-14T11:12:11.432Z,4.03
2023-08-14T11:14:41.864Z,3.67
2023-08-14T11:17:10.979Z,4.38
2023-08-14T11:19:40.370Z,4.25
2023-08-14T11:22:09.372Z,3.97
2023-08-14T11:24:39.087Z,4.05
2023-08-14T11:27:08.237Z,3.70
2023-08-14T11:29:51.736Z,3.65
2023-08-14T11:32:21.980Z,4.28
2023-08-14T11:34:52.887Z,3.75
2023-08-14T11:37:21.636Z,3.88
2023-08-14T11:39:50.777Z,3.45
2023-08-14T11:42:20.323Z,4.30
2023-08-14T11:44:50.022Z,3.83
2023-08-14T11:47:19.222Z,4.22
2023-08-14T11:49:49.090Z,3.50
2023-08-14T11:52:18.101Z,4.30
2023-08-14T11:54:47.731Z,4.55
2023-08-14T11:57:16.542Z,3.80
2023-08-14T11:59:46.575Z,4.32
2023-08-14T12:02:15.239Z,4.13
2023-08-14T12:04:44.298Z,3.85
2023-08-14T12:07:13.042Z,3.70
2023-08-14T12:09:42.107Z,3.45
2023-08-14T12:12:12.071Z,3.47
2023-08-14T12:14:46.291Z,3.92
2023-08-14T12:17:20.449Z,3.42
2023-08-14T12:19:51.448Z,3.67
2023-08-14T12:22:23.962Z,3.20
2023-08-14T12:27:24.097Z,3.15
2023-08-14T12:29:53.834Z,4.30
2023-08-14T12:32:23.356Z,3.88
2023-08-14T12:34:52.408Z,3.95
2023-08-14T12:37:21.757Z,3.70
2023-08-14T12:39:57.334Z,3.50
2023-08-14T12:42:26.046Z,3.42
2023-08-14T12:44:55.193Z,3.55
2023-08-14T12:47:24.513Z,3.60
2023-08-14T12:49:54.182Z,3.70
2023-08-14T12:52:22.894Z,2.92
2023-08-14T12:55:04.494Z,2.97
2023-08-14T12:57:34.539Z,3.67
2023-08-14T13:00:05.527Z,2.97
2023-08-14T13:02:34.397Z,3.20
2023-08-14T13:05:04.507Z,3.08
2023-08-14T13:07:33.712Z,3.58
2023-08-14T13:10:02.874Z,2.85
2023-08-14T13:12:31.611Z,3.35
2023-08-14T13:15:00.715Z,3.50
2023-08-14T13:17:29.579Z,3.15
2023-08-14T13:19:58.728Z,3.20
2023-08-14T13:22:28.025Z,3.47
2023-08-14T13:24:57.197Z,3.15
2023-08-14T13:27:26.000Z,3.22
2023-08-14T13:29:55.360Z,2.90
2023-08-14T13:32:24.190Z,2.75
2023-08-14T13:34:53.299Z,2.70
2023-08-14T13:37:22.024Z,2.75
2023-08-14T13:39:51.190Z,3.60
2023-08-14T13:42:20.241Z,3.10
2023-08-14T13:44:49.961Z,2.92
2023-08-14T13:47:18.842Z,3.47
2023-08-14T13:49:48.069Z,3.15
2023-08-14T13:52:16.899Z,2.95
2023-08-14T13:54:46.319Z,2.92
2023-08-14T13:57:15.042Z,2.83
2023-08-14T13:59:44.089Z,3.40
2023-08-14T14:02:14.453Z,2.78
2023-08-14T14:04:43.819Z,3.20
2023-08-14T14:07:14.390Z,3.30
2023-08-14T14:09:43.690Z,3.63
2023-08-14T14:12:12.508Z,3.05
2023-08-14T14:14:41.618Z,3.10
2023-08-14T14:17:10.447Z,3.47
2023-08-14T14:19:41.292Z,3.25
2023-08-14T14:22:10.084Z,3.40
2023-08-14T14:24:39.375Z,3.00
2023-08-14T14:27:08.752Z,3.33
2023-08-14T14:29:37.832Z,2.60
2023-08-14T14:32:07.057Z,3.45
2023-08-14T14:34:36.224Z,3.63
2023-08-14T14:37:05.126Z,2.80
2023-08-14T14:39:34.354Z,3.17
2023-08-14T14:42:03.112Z,3.00
2023-08-14T14:44:32.313Z,2.95
2023-08-14T14:47:01.183Z,3.00
2023-08-14T14:49:30.434Z,3.22
2023-08-14T14:52:02.639Z,3.78
2023-08-14T14:54:31.766Z,2.78
2023-08-14T14:57:00.527Z,2.95
2023-08-14T14:59:29.636Z,3.22
2023-08-14T15:01:58.499Z,2.63
2023-08-14T15:04:30.272Z,2.92
2023-08-14T15:06:59.286Z,2.90
2023-08-14T15:09:28.332Z,2.90
2023-08-14T15:11:57.067Z,2.80
2023-08-14T15:14:26.165Z,3.20
2023-08-14T15:16:54.794Z,3.47
2023-08-14T15:19:23.920Z,3.30
2023-08-14T15:21:52.571Z,3.33
2023-08-14T15:24:21.541Z,2.30
2023-08-14T15:26:52.070Z,2.95
2023-08-14T15:29:21.484Z,3.33
2023-08-14T15:31:50.177Z,3.20
2023-08-14T15:34:19.232Z,2.50
2023-08-14T15:36:47.963Z,2.72
2023-08-14T15:39:16.920Z,2.90
2023-08-14T15:41:45.839Z,3.20
2023-08-14T15:44:14.923Z,3.67
2023-08-14T15:46:43.643Z,3.28
2023-08-14T15:49:12.931Z,3.40
2023-08-14T15:51:41.734Z,4.03
2023-08-14T15:54:10.765Z,2.88
2023-08-14T15:56:39.470Z,3.55
2023-08-14T15:59:08.547Z,3.05
2023-08-14T16:01:37.210Z,3.53
2023-08-14T16:04:06.623Z,3.25
2023-08-14T16:06:35.488Z,3.20
2023-08-14T16:09:04.782Z,3.17
2023-08-14T16:11:33.537Z,3.60
2023-08-14T16:14:02.559Z,2.95
2023-08-14T16:16:31.274Z,3.60
2023-08-14T16:19:00.480Z,3.58
2023-08-14T16:21:29.350Z,3.47
2023-08-14T16:23:58.569Z,3.17
2023-08-14T16:26:27.298Z,3.63
2023-08-14T16:28:56.219Z,3.85
2023-08-14T16:31:24.970Z,3.50
2023-08-14T16:33:54.293Z,3.25
2023-08-14T16:36:22.941Z,3.47
2023-08-14T16:38:51.995Z,3.17
2023-08-14T16:41:20.590Z,3.53
2023-08-14T16:43:49.626Z,3.10
2023-08-14T16:46:18.410Z,3.50
2023-08-14T16:48:48.277Z,3.42
2023-08-14T16:51:16.895Z,3.40
2023-08-14T16:53:45.909Z,3.95
2023-08-14T16:56:14.703Z,3.67
2023-08-14T16:58:43.770Z,4.25
2023-08-14T17:01:12.409Z,3.88
2023-08-14T17:03:41.482Z,3.38
2023-08-14T17:06:10.211Z,5.05
2023-08-14T17:08:39.419Z,3.38
2023-08-14T17:11:08.238Z,4.28
2023-08-14T17:13:37.213Z,4.22
2023-08-14T17:16:09.496Z,4.15
2023-08-14T17:18:38.591Z,3.85
2023-08-14T17:21:07.359Z,4.25
2023-08-14T17:23:36.390Z,3.58
2023-08-14T17:26:05.893Z,3.72
2023-08-14T17:28:34.989Z,3.70
2023-08-14T17:31:03.769Z,4.07
2023-08-14T17:33:33.083Z,3.63
2023-08-14T17:36:01.778Z,2.83
2023-08-14T17:38:30.837Z,3.92
2023-08-14T17:40:59.575Z,3.58
2023-08-14T17:43:28.743Z,3.70
2023-08-14T17:45:57.433Z,3.60
2023-08-14T17:48:26.477Z,3.75
2023-08-14T17:50:55.357Z,4.28
2023-08-14T17:53:26.113Z,3.92
2023-08-14T17:55:54.991Z,3.38
2023-08-14T17:58:24.346Z,3.78
2023-08-14T18:00:53.239Z,3.60
2023-08-14T18:03:22.512Z,4.38
2023-08-14T18:05:52.126Z,4.10
2023-08-14T18:08:21.386Z,4.30
2023-08-14T18:10:50.289Z,4.18
2023-08-14T18:13:19.475Z,4.15
2023-08-14T18:15:50.058Z,3.95
2023-08-14T18:18:19.271Z,4.50
2023-08-14T18:20:53.520Z,3.80
2023-08-14T18:23:22.831Z,4.47
2023-08-14T18:25:54.913Z,4.10
2023-08-14T18:28:24.492Z,4.85
2023-08-14T18:30:53.439Z,4.65
2023-08-14T18:33:22.536Z,4.82
2023-08-14T18:35:51.396Z,4.38
2023-08-14T18:38:20.670Z,4.80
2023-08-14T18:40:49.759Z,4.60
2023-08-14T18:43:18.917Z,4.22
2023-08-14T18:45:47.965Z,4.85
2023-08-14T18:48:17.619Z,5.45
2023-08-14T18:50:46.393Z,5.35
2023-08-14T18:53:15.928Z,5.18
2023-08-14T18:55:44.640Z,5.00
2023-08-14T18:58:14.652Z,6.00
2023-08-14T19:00:43.444Z,5.10
2023-08-14T19:03:12.655Z,5.78
2023-08-14T19:05:41.581Z,6.18
2023-08-14T19:08:10.747Z,5.35
2023-08-14T19:10:39.512Z,6.00
2023-08-14T19:13:08.764Z,6.32
2023-08-14T19:15:37.586Z,5.85
2023-08-14T19:18:06.811Z,5.22
2023-08-14T19:20:35.648Z,5.45
2023-08-14T19:23:04.843Z,5.15
2023-08-14T19:25:33.735Z,5.07
2023-08-14T19:28:11.407Z,5.00
2023-08-14T19:30:45.164Z,4.95
2023-08-14T19:33:14.420Z,5.07
2023-08-14T19:35:44.341Z,4.75
2023-08-14T19:38:13.313Z,4.75
2023-08-14T19:40:41.940Z,5.47
2023-08-14T19:43:11.045Z,5.13
2023-08-14T19:45:39.654Z,4.88
2023-08-14T19:48:08.685Z,4.85
2023-08-14T19:50:37.356Z,5.32
2023-08-14T19:53:06.243Z,4.78
2023-08-14T19:55:39.092Z,5.13
2023-08-14T19:58:08.365Z,4.30
2023-08-14T20:00:37.115Z,4.72
2023-08-14T20:03:06.383Z,5.30
2023-08-14T20:05:35.236Z,4.13
2023-08-14T20:08:04.493Z,4.72
2023-08-14T20:10:33.080Z,4.15
2023-08-14T20:13:01.994Z,4.15
2023-08-14T20:15:30.589Z,4.38
2023-08-14T20:17:59.702Z,4.32
2023-08-14T20:20:28.552Z,4.47
2023-08-14T20:22:58.049Z,4.32
2023-08-14T20:25:28.990Z,4.20
2023-08-14T20:27:57.989Z,4.43
2023-08-14T20:30:26.690Z,4.07
2023-08-14T20:32:55.803Z,4.03
2023-08-14T20:35:24.519Z,4.13
2023-08-14T20:37:53.539Z,3.65
2023-08-14T20:40:22.231Z,4.68
2023-08-14T20:42:51.133Z,4.20
2023-08-14T20:45:21.030Z,3.88
2023-08-14T20:47:50.024Z,4.47
2023-08-14T20:50:18.785Z,4.90
2023-08-14T20:52:47.845Z,3.55
2023-08-14T20:55:16.505Z,4.20
2023-08-14T20:57:45.448Z,3.97
2023-08-14T21:00:14.424Z,3.45
2023-08-14T21:02:43.889Z,3.95
2023-08-14T21:05:12.689Z,3.40
2023-08-14T21:07:41.726Z,3.10
2023-08-14T21:10:10.422Z,3.80
2023-08-14T21:12:39.535Z,3.70
2023-08-14T21:15:08.567Z,3.47
2023-08-14T21:17:37.832Z,3.60
2023-08-14T21:20:07.221Z,3.63
2023-08-14T21:22:36.412Z,3.50
2023-08-14T21:25:05.522Z,3.78
2023-08-14T21:27:34.587Z,3.92
2023-08-14T21:30:03.506Z,4.03
2023-08-14T21:32:32.549Z,3.38
2023-08-14T21:35:01.342Z,3.45
2023-08-14T21:37:30.397Z,4.22
2023-08-14T21:39:59.024Z,3.33
2023-08-14T21:42:28.016Z,3.58
2023-08-14T21:44:56.898Z,4.43
2023-08-14T21:47:25.892Z,3.28
2023-08-14T21:49:54.595Z,4.20
2023-08-14T21:52:23.683Z,3.67
2023-08-14T21:54:52.760Z,4.03
2023-08-14T21:57:22.092Z,3.80
2023-08-14T21:59:51.678Z,3.90
2023-08-14T22:02:21.679Z,3.53
2023-08-14T22:04:51.886Z,3.65
2023-08-14T22:07:23.039Z,4.03
2023-08-14T22:09:51.782Z,3.45
2023-08-14T22:12:20.853Z,3.53
2023-08-14T22:14:49.580Z,4.03
2023-08-14T22:17:20.118Z,3.83
2023-08-14T22:19:52.790Z,3.50
2023-08-14T22:22:24.114Z,3.80
2023-08-14T22:24:52.952Z,4.47
2023-08-14T22:27:22.649Z,4.05
2023-08-14T22:29:53.219Z,4.10
2023-08-14T22:32:22.191Z,4.13
2023-08-14T22:34:50.856Z,4.25
2023-08-14T22:37:20.102Z,3.90
2023-08-14T22:39:48.975Z,3.60
2023-08-14T22:42:18.056Z,3.60
2023-08-14T22:44:46.789Z,3.90
2023-08-14T22:47:15.853Z,3.85
2023-08-14T22:49:44.629Z,3.20
2023-08-14T22:52:13.902Z,4.10
2023-08-14T22:54:42.578Z,4.53
2023-08-14T22:57:11.637Z,3.50
2023-08-14T22:59:40.349Z,3.97
2023-08-14T23:02:09.487Z,4.40
2023-08-14T23:04:38.174Z,4.30
2023-08-14T23:07:07.548Z,3.83
2023-08-14T23:09:36.392Z,4.32
2023-08-14T23:12:05.594Z,4.40
2023-08-14T23:14:34.233Z,4.13
2023-08-14T23:17:03.329Z,3.75
2023-08-14T23:19:32.091Z,4.47
2023-08-14T23:22:01.123Z,4.45
2023-08-14T23:24:29.877Z,4.05
2023-08-14T23:26:59.304Z,4.45
2023-08-14T23:29:28.107Z,4.47
2023-08-14T23:31:57.155Z,3.47
2023-08-14T23:34:28.166Z,4.00
2023-08-14T23:36:58.576Z,4.00
2023-08-14T23:39:27.395Z,4.25
2023-08-14T23:41:56.447Z,4.32
2023-08-14T23:44:25.176Z,3.85
2023-08-14T23:46:54.228Z,3.83
2023-08-14T23:49:22.967Z,4.40
2023-08-14T23:51:52.046Z,3.58
2023-08-14T23:54:20.995Z,5.32
2023-08-14T23:56:50.065Z,4.32
2023-08-14T23:59:18.900Z,4.05
